Time;durP1;ratioP1;P1;durP2;ratioP2;P2;SDS_P1;SDS_P2;PMS_P1;PMS_P2;Temp;Humidity;BMP_temperature;BMP_pressure;BME280_temperature;BME280_humidity;BME280_pressure;Samples;Min_cycle;Max_cycle;Signal;HPM_P1;HPM_P2
2023/12/08 00:02:00;;;;;;;8.77;6.53;;;;;;;;;;5066167;28;20201;-64
2023/12/08 00:04:27;;;;;;;9.30;6.80;;;;;;;;;;5058631;28;20206;-65
2023/12/08 00:06:54;;;;;;;9.97;7.30;;;;;;;;;;5059358;28;20205;-65
2023/12/08 00:09:21;;;;;;;9.20;6.77;;;;;;;;;;5061254;28;20199;-65
2023/12/08 00:11:48;;;;;;;10.53;8.27;;;;;;;;;;5061595;28;20213;-64
2023/12/08 00:14:16;;;;;;;10.40;8.40;;;;;;;;;;5064151;28;20231;-65
2023/12/08 00:16:43;;;;;;;10.57;7.83;;;;;;;;;;5060846;28;20206;-66
2023/12/08 00:19:11;;;;;;;11.27;8.53;;;;;;;;;;5064225;28;20218;-64
2023/12/08 00:21:38;;;;;;;13.67;9.60;;;;;;;;;;5066084;28;20248;-65
2023/12/08 00:24:06;;;;;;;14.70;10.27;;;;;;;;;;5068043;28;20195;-65
2023/12/08 00:26:33;;;;;;;12.90;9.37;;;;;;;;;;5063141;28;20208;-65
2023/12/08 00:29:00;;;;;;;12.17;9.07;;;;;;;;;;5062549;28;20203;-64
2023/12/08 00:31:28;;;;;;;11.60;8.73;;;;;;;;;;5065194;28;20200;-65
2023/12/08 00:33:56;;;;;;;9.53;8.27;;;;;;;;;;5071648;28;20238;-64
2023/12/08 00:36:23;;;;;;;10.90;7.97;;;;;;;;;;5063250;28;20210;-64
2023/12/08 00:38:50;;;;;;;9.93;7.87;;;;;;;;;;5067915;28;20210;-64
2023/12/08 00:41:18;;;;;;;10.07;7.53;;;;;;;;;;5064599;28;20203;-65
2023/12/08 00:43:45;;;;;;;9.17;7.33;;;;;;;;;;5065539;28;20284;-65
2023/12/08 00:46:12;;;;;;;9.20;8.27;;;;;;;;;;5066798;28;20195;-64
2023/12/08 00:48:40;;;;;;;9.40;7.90;;;;;;;;;;5067838;28;20196;-65
2023/12/08 00:51:07;;;;;;;9.80;7.83;;;;;;;;;;5069983;28;20201;-64
2023/12/08 00:53:35;;;;;;;8.77;7.37;;;;;;;;;;5065645;28;20211;-65
2023/12/08 00:56:02;;;;;;;9.40;7.43;;;;;;;;;;5062894;28;20203;-65
2023/12/08 00:58:29;;;;;;;8.03;6.73;;;;;;;;;;5062124;28;20203;-65
2023/12/08 01:00:56;;;;;;;10.47;7.50;;;;;;;;;;5065836;28;20229;-65
2023/12/08 01:03:23;;;;;;;8.73;7.30;;;;;;;;;;5066507;28;20577;-65
2023/12/08 01:05:51;;;;;;;9.43;7.67;;;;;;;;;;5064836;28;20207;-64
2023/12/08 01:08:18;;;;;;;8.53;7.07;;;;;;;;;;5063064;28;20198;-64
2023/12/08 01:10:46;;;;;;;8.00;6.87;;;;;;;;;;5066854;28;20203;-66
2023/12/08 01:13:13;;;;;;;8.33;6.30;;;;;;;;;;5063422;28;20312;-64
2023/12/08 01:15:40;;;;;;;9.50;6.57;;;;;;;;;;5066655;28;20199;-64
2023/12/08 01:18:07;;;;;;;9.90;6.63;;;;;;;;;;5065707;28;20204;-65
2023/12/08 01:20:36;;;;;;;9.87;7.40;;;;;;;;;;5065222;28;20227;-65
2023/12/08 01:23:04;;;;;;;8.63;6.87;;;;;;;;;;5064471;28;20286;-65
2023/12/08 01:25:31;;;;;;;9.37;6.33;;;;;;;;;;5068263;28;20208;-65
2023/12/08 01:27:58;;;;;;;7.07;5.87;;;;;;;;;;5062450;28;20199;-65
2023/12/08 01:30:25;;;;;;;9.20;6.73;;;;;;;;;;5065463;28;20195;-64
2023/12/08 01:32:53;;;;;;;6.70;5.83;;;;;;;;;;5066354;28;20202;-65
2023/12/08 01:35:20;;;;;;;8.30;6.20;;;;;;;;;;5063847;28;20205;-64
2023/12/08 01:37:47;;;;;;;7.13;6.40;;;;;;;;;;5065321;28;20199;-64
2023/12/08 01:40:15;;;;;;;8.07;6.70;;;;;;;;;;5066838;28;20229;-64
2023/12/08 01:42:44;;;;;;;7.57;6.40;;;;;;;;;;5061402;28;20204;-64
2023/12/08 01:45:11;;;;;;;6.17;5.33;;;;;;;;;;5068659;28;20207;-65
2023/12/08 01:47:39;;;;;;;7.20;5.50;;;;;;;;;;5064971;28;20207;-63
2023/12/08 01:50:07;;;;;;;5.97;4.73;;;;;;;;;;5060763;28;20202;-64
2023/12/08 01:52:34;;;;;;;8.17;5.20;;;;;;;;;;5063766;28;20206;-64
2023/12/08 01:55:01;;;;;;;6.27;5.40;;;;;;;;;;5066613;28;20217;-71
2023/12/08 01:57:30;;;;;;;6.07;5.33;;;;;;;;;;5066227;28;20233;-71
2023/12/08 01:59:58;;;;;;;6.03;5.27;;;;;;;;;;5065121;28;20284;-71
2023/12/08 02:02:25;;;;;;;6.00;5.37;;;;;;;;;;5063909;28;20217;-71
2023/12/08 02:04:53;;;;;;;6.50;5.80;;;;;;;;;;5063109;28;20202;-73
2023/12/08 02:07:21;;;;;;;8.37;5.70;;;;;;;;;;5063532;28;20202;-71
2023/12/08 02:09:48;;;;;;;7.13;6.00;;;;;;;;;;5068820;28;20203;-71
2023/12/08 02:12:16;;;;;;;6.67;5.60;;;;;;;;;;5062739;28;20214;-70
2023/12/08 02:14:45;;;;;;;9.30;5.90;;;;;;;;;;5066502;28;20234;-71
2023/12/08 02:17:13;;;;;;;7.60;6.10;;;;;;;;;;5062894;28;20207;-71
2023/12/08 02:19:42;;;;;;;5.87;5.33;;;;;;;;;;5062659;28;20227;-71
2023/12/08 02:22:09;;;;;;;7.37;6.20;;;;;;;;;;5063463;28;20199;-71
2023/12/08 02:24:37;;;;;;;6.70;6.00;;;;;;;;;;5062537;28;20195;-72
2023/12/08 02:27:05;;;;;;;7.13;5.93;;;;;;;;;;5062998;28;20386;-70
2023/12/08 02:29:32;;;;;;;7.53;6.73;;;;;;;;;;5063674;28;20219;-71
2023/12/08 02:32:01;;;;;;;8.37;6.17;;;;;;;;;;5064764;28;20289;-70
2023/12/08 02:34:30;;;;;;;8.30;6.43;;;;;;;;;;5065485;28;20221;-71
2023/12/08 02:36:56;;;;;;;6.47;5.73;;;;;;;;;;5063730;28;20206;-69
2023/12/08 02:39:24;;;;;;;6.77;5.77;;;;;;;;;;5060969;28;20202;-71
2023/12/08 02:41:53;;;;;;;6.80;6.07;;;;;;;;;;5063797;28;20203;-72
2023/12/08 02:44:20;;;;;;;7.77;5.97;;;;;;;;;;5064585;28;20207;-71
2023/12/08 02:46:47;;;;;;;7.10;6.10;;;;;;;;;;5063356;28;20222;-71
2023/12/08 02:49:14;;;;;;;7.17;6.40;;;;;;;;;;5060560;28;20200;-70
2023/12/08 02:51:41;;;;;;;7.70;5.73;;;;;;;;;;5058634;28;20515;-71
2023/12/08 02:54:08;;;;;;;6.80;6.10;;;;;;;;;;5059668;28;20212;-70
2023/12/08 02:56:35;;;;;;;6.90;6.10;;;;;;;;;;5059488;28;20208;-71
2023/12/08 02:59:04;;;;;;;7.97;5.80;;;;;;;;;;5064064;28;20206;-71
2023/12/08 03:01:31;;;;;;;7.57;6.77;;;;;;;;;;5061139;28;20207;-70
2023/12/08 03:03:58;;;;;;;8.80;6.60;;;;;;;;;;5065898;28;20199;-71
2023/12/08 03:06:25;;;;;;;8.03;6.57;;;;;;;;;;5059621;28;20203;-70
2023/12/08 03:08:52;;;;;;;7.40;5.87;;;;;;;;;;5064628;28;20199;-71
2023/12/08 03:11:19;;;;;;;8.43;6.83;;;;;;;;;;5064378;28;20206;-71
2023/12/08 03:13:46;;;;;;;7.20;6.40;;;;;;;;;;5061258;28;20235;-71
2023/12/08 03:16:16;;;;;;;6.67;5.97;;;;;;;;;;5064134;28;20194;-71
2023/12/08 03:18:43;;;;;;;7.13;6.00;;;;;;;;;;5064816;28;20203;-70
2023/12/08 03:21:10;;;;;;;7.17;5.77;;;;;;;;;;5058303;28;20230;-71
2023/12/08 03:23:37;;;;;;;8.10;6.20;;;;;;;;;;5064530;28;20198;-71
2023/12/08 03:26:04;;;;;;;7.63;5.73;;;;;;;;;;5057965;28;20238;-71
2023/12/08 03:28:31;;;;;;;5.90;5.30;;;;;;;;;;5062196;28;20203;-71
2023/12/08 03:30:58;;;;;;;6.10;5.40;;;;;;;;;;5066801;28;20195;-71
2023/12/08 03:33:27;;;;;;;6.03;4.77;;;;;;;;;;5060460;28;20210;-70
2023/12/08 03:35:54;;;;;;;7.33;5.40;;;;;;;;;;5067980;28;20210;-71
2023/12/08 03:38:21;;;;;;;6.37;5.00;;;;;;;;;;5059494;28;20206;-70
2023/12/08 03:40:48;;;;;;;5.93;4.97;;;;;;;;;;5060912;28;20230;-70
2023/12/08 03:43:15;;;;;;;6.93;5.60;;;;;;;;;;5065327;28;20203;-70
2023/12/08 03:45:42;;;;;;;7.70;5.37;;;;;;;;;;5063907;28;20201;-71
2023/12/08 03:48:11;;;;;;;7.30;5.73;;;;;;;;;;5060138;28;20203;-70
2023/12/08 03:50:39;;;;;;;7.37;5.50;;;;;;;;;;5066782;28;20214;-71
2023/12/08 03:53:07;;;;;;;7.33;5.93;;;;;;;;;;5062955;28;20211;-68
2023/12/08 03:55:34;;;;;;;7.47;5.43;;;;;;;;;;5066238;28;20209;-70
2023/12/08 03:58:01;;;;;;;5.70;5.00;;;;;;;;;;5062064;28;20207;-69
2023/12/08 04:00:28;;;;;;;7.10;5.20;;;;;;;;;;5066598;28;20222;-70
2023/12/08 04:02:55;;;;;;;5.97;5.37;;;;;;;;;;5067990;28;20202;-70
2023/12/08 04:05:22;;;;;;;6.63;5.37;;;;;;;;;;5066236;28;20199;-70
2023/12/08 04:07:51;;;;;;;5.97;5.17;;;;;;;;;;5066890;28;20202;-70
2023/12/08 04:10:18;;;;;;;6.83;5.80;;;;;;;;;;5067535;28;20199;-70
2023/12/08 04:12:45;;;;;;;6.40;5.60;;;;;;;;;;5067324;28;20205;-70
2023/12/08 04:15:12;;;;;;;6.63;5.67;;;;;;;;;;5066361;28;20203;-63
2023/12/08 04:17:39;;;;;;;5.83;5.23;;;;;;;;;;5070413;28;20209;-63
2023/12/08 04:20:07;;;;;;;7.03;5.67;;;;;;;;;;5065689;28;20211;-63
2023/12/08 04:22:34;;;;;;;6.57;5.57;;;;;;;;;;5065405;28;20205;-63
2023/12/08 04:25:02;;;;;;;8.13;5.77;;;;;;;;;;5069991;28;20203;-63
2023/12/08 04:27:29;;;;;;;5.97;5.33;;;;;;;;;;5062878;28;20200;-64
2023/12/08 04:29:57;;;;;;;6.40;5.70;;;;;;;;;;5066610;28;20206;-63
2023/12/08 04:32:24;;;;;;;7.07;6.37;;;;;;;;;;5068484;28;20207;-62
2023/12/08 04:34:51;;;;;;;8.93;5.87;;;;;;;;;;5063166;28;20424;-63
2023/12/08 04:37:18;;;;;;;9.73;7.60;;;;;;;;;;5063924;28;20200;-63
2023/12/08 04:39:45;;;;;;;11.33;8.23;;;;;;;;;;5064976;28;20199;-62
2023/12/08 04:42:14;;;;;;;10.77;7.93;;;;;;;;;;5062490;28;20218;-63
2023/12/08 04:44:41;;;;;;;11.40;8.57;;;;;;;;;;5065545;28;20206;-63
2023/12/08 04:47:08;;;;;;;9.93;7.73;;;;;;;;;;5066158;28;20207;-63
2023/12/08 04:49:35;;;;;;;9.10;7.20;;;;;;;;;;5070789;28;20213;-63
2023/12/08 04:52:02;;;;;;;8.30;6.87;;;;;;;;;;5063986;28;20206;-63
2023/12/08 04:54:29;;;;;;;7.10;6.40;;;;;;;;;;5067317;28;20199;-63
2023/12/08 04:56:56;;;;;;;8.00;7.20;;;;;;;;;;5065823;28;20203;-62
2023/12/08 04:59:25;;;;;;;8.70;7.60;;;;;;;;;;5063876;28;20213;-63
2023/12/08 05:01:52;;;;;;;9.63;6.93;;;;;;;;;;5068011;28;20225;-64
2023/12/08 05:04:20;;;;;;;11.60;8.03;;;;;;;;;;5069240;28;20202;-63
2023/12/08 05:06:47;;;;;;;10.00;7.10;;;;;;;;;;5064504;28;20199;-63
2023/12/08 05:09:15;;;;;;;9.13;8.20;;;;;;;;;;5061790;28;20214;-62
2023/12/08 05:11:42;;;;;;;11.03;9.33;;;;;;;;;;5067064;28;20204;-64
2023/12/08 05:14:09;;;;;;;10.03;7.90;;;;;;;;;;5068194;28;20241;-62
2023/12/08 05:16:37;;;;;;;8.20;7.37;;;;;;;;;;5065695;28;20199;-63
2023/12/08 05:19:04;;;;;;;12.43;8.23;;;;;;;;;;5066874;28;20202;-63
2023/12/08 05:21:32;;;;;;;11.60;8.00;;;;;;;;;;5068084;28;20215;-62
2023/12/08 05:23:59;;;;;;;10.90;8.00;;;;;;;;;;5062251;28;20215;-62
2023/12/08 05:26:26;;;;;;;9.23;7.80;;;;;;;;;;5063448;28;20210;-69
2023/12/08 05:28:53;;;;;;;11.17;8.67;;;;;;;;;;5067470;28;20213;-69
2023/12/08 05:31:20;;;;;;;10.30;8.47;;;;;;;;;;5066837;28;20199;-69
2023/12/08 05:33:49;;;;;;;9.97;8.10;;;;;;;;;;5066945;28;20199;-68
2023/12/08 05:36:17;;;;;;;10.73;8.60;;;;;;;;;;5069613;28;20207;-69
2023/12/08 05:38:44;;;;;;;11.70;8.50;;;;;;;;;;5064722;28;20199;-67
2023/12/08 05:41:12;;;;;;;10.67;8.50;;;;;;;;;;5058177;28;20266;-67
2023/12/08 05:43:39;;;;;;;9.50;8.23;;;;;;;;;;5060117;28;20217;-69
2023/12/08 05:46:06;;;;;;;13.43;8.70;;;;;;;;;;5063475;28;20214;-69
2023/12/08 05:48:33;;;;;;;10.03;8.47;;;;;;;;;;5058463;28;20199;-69
2023/12/08 05:51:01;;;;;;;11.20;9.33;;;;;;;;;;5066066;28;20196;-68
2023/12/08 05:53:28;;;;;;;11.37;8.90;;;;;;;;;;5065423;28;20195;-68
2023/12/08 05:55:55;;;;;;;8.43;7.37;;;;;;;;;;5066060;28;20216;-68
2023/12/08 05:58:24;;;;;;;9.27;7.77;;;;;;;;;;5066694;28;20209;-69
2023/12/08 06:00:51;;;;;;;9.80;8.33;;;;;;;;;;5066971;28;20227;-69
2023/12/08 06:03:18;;;;;;;8.13;7.30;;;;;;;;;;5064253;28;20203;-69
2023/12/08 06:05:45;;;;;;;12.30;9.30;;;;;;;;;;5065413;28;20194;-68
2023/12/08 06:08:14;;;;;;;14.60;9.83;;;;;;;;;;5064378;28;20198;-68
2023/12/08 06:10:42;;;;;;;10.53;8.60;;;;;;;;;;5064897;28;20210;-69
2023/12/08 06:13:09;;;;;;;11.00;9.40;;;;;;;;;;5065110;28;20237;-68
2023/12/08 06:15:36;;;;;;;10.17;8.27;;;;;;;;;;5069441;28;20207;-69
2023/12/08 06:18:04;;;;;;;10.10;8.37;;;;;;;;;;5063498;28;20207;-70
2023/12/08 06:20:32;;;;;;;11.10;9.33;;;;;;;;;;5060592;28;20244;-69
2023/12/08 06:22:59;;;;;;;13.37;10.10;;;;;;;;;;5064817;28;20290;-68
2023/12/08 06:25:27;;;;;;;14.47;10.50;;;;;;;;;;5061512;28;20243;-68
2023/12/08 06:27:54;;;;;;;13.07;9.27;;;;;;;;;;5065048;28;20263;-70
2023/12/08 06:30:22;;;;;;;15.47;11.53;;;;;;;;;;5064823;28;20203;-68
2023/12/08 06:32:49;;;;;;;15.67;11.47;;;;;;;;;;5063676;28;20191;-69
2023/12/08 06:35:16;;;;;;;15.10;11.37;;;;;;;;;;5065566;28;20225;-62
2023/12/08 06:37:44;;;;;;;16.87;11.23;;;;;;;;;;5063516;28;20207;-62
2023/12/08 06:40:11;;;;;;;15.80;11.33;;;;;;;;;;5065317;28;20210;-62
2023/12/08 06:42:40;;;;;;;14.83;10.67;;;;;;;;;;5064943;28;20230;-62
2023/12/08 06:45:08;;;;;;;12.37;10.20;;;;;;;;;;5064405;28;20211;-62
2023/12/08 06:47:35;;;;;;;17.40;12.33;;;;;;;;;;5061241;28;20264;-62
2023/12/08 06:50:02;;;;;;;16.80;11.97;;;;;;;;;;5067429;28;20199;-63
2023/12/08 06:52:29;;;;;;;14.33;11.27;;;;;;;;;;5060090;28;20208;-62
2023/12/08 06:54:56;;;;;;;13.17;10.53;;;;;;;;;;5060579;28;20203;-62
2023/12/08 06:57:24;;;;;;;11.47;9.87;;;;;;;;;;5071008;28;20207;-63
2023/12/08 06:59:53;;;;;;;14.37;10.83;;;;;;;;;;5066788;28;20195;-62
2023/12/08 07:02:20;;;;;;;11.37;9.37;;;;;;;;;;5067590;28;20216;-63
2023/12/08 07:04:47;;;;;;;14.73;11.00;;;;;;;;;;5066745;28;20199;-63
2023/12/08 07:07:15;;;;;;;12.90;10.50;;;;;;;;;;5067476;28;20210;-63
2023/12/08 07:09:42;;;;;;;19.13;12.30;;;;;;;;;;5061316;28;20215;-63
2023/12/08 07:12:09;;;;;;;16.97;11.37;;;;;;;;;;5068758;28;20209;-62
2023/12/08 07:14:36;;;;;;;15.43;10.93;;;;;;;;;;5064630;28;20245;-63
2023/12/08 07:17:05;;;;;;;13.50;10.37;;;;;;;;;;5065522;28;20511;-62
2023/12/08 07:19:32;;;;;;;12.87;10.63;;;;;;;;;;5066368;28;20211;-62
2023/12/08 07:21:59;;;;;;;22.87;12.83;;;;;;;;;;5062755;28;20227;-64
2023/12/08 07:24:27;;;;;;;25.17;12.73;;;;;;;;;;5060912;28;20238;-62
2023/12/08 07:26:54;;;;;;;21.73;13.70;;;;;;;;;;5055551;28;20269;-62
2023/12/08 07:29:23;;;;;;;19.77;12.97;;;;;;;;;;5061270;28;20214;-62
2023/12/08 07:31:50;;;;;;;26.00;13.30;;;;;;;;;;5060772;28;20221;-62
2023/12/08 07:34:18;;;;;;;24.07;12.07;;;;;;;;;;5057258;28;20207;-62
2023/12/08 07:36:45;;;;;;;31.87;13.80;;;;;;;;;;5064755;28;20207;-62
2023/12/08 07:39:12;;;;;;;26.27;13.80;;;;;;;;;;5062673;28;20211;-62
2023/12/08 07:41:39;;;;;;;24.20;14.07;;;;;;;;;;5067015;28;20260;-62
2023/12/08 07:44:07;;;;;;;66.67;14.43;;;;;;;;;;5061976;28;20199;-63
2023/12/08 07:46:34;;;;;;;31.77;14.10;;;;;;;;;;5067441;28;20209;-68
2023/12/08 07:49:02;;;;;;;33.43;14.23;;;;;;;;;;5062689;28;20198;-68
2023/12/08 07:51:32;;;;;;;74.70;16.13;;;;;;;;;;5063909;28;20202;-68
2023/12/08 07:54:00;;;;;;;80.80;17.27;;;;;;;;;;5062676;28;20301;-68
2023/12/08 07:56:27;;;;;;;30.37;14.93;;;;;;;;;;5062959;28;20250;-68
2023/12/08 07:58:54;;;;;;;40.03;15.90;;;;;;;;;;5062746;28;20207;-68
2023/12/08 08:01:21;;;;;;;62.03;16.87;;;;;;;;;;5059806;28;20210;-68
2023/12/08 08:03:48;;;;;;;73.53;16.33;;;;;;;;;;5056553;28;20202;-67
2023/12/08 08:06:15;;;;;;;45.73;15.40;;;;;;;;;;5056592;28;20276;-68
2023/12/08 08:08:44;;;;;;;62.73;15.77;;;;;;;;;;5056826;28;20211;-67
2023/12/08 08:11:11;;;;;;;61.30;15.20;;;;;;;;;;5054205;28;20536;-68
2023/12/08 08:13:38;;;;;;;64.63;16.20;;;;;;;;;;5059218;28;20234;-66
2023/12/08 08:16:05;;;;;;;37.93;13.93;;;;;;;;;;5062251;28;20207;-68
2023/12/08 08:18:32;;;;;;;24.83;12.20;;;;;;;;;;5058669;28;20200;-67
2023/12/08 08:20:59;;;;;;;54.73;14.60;;;;;;;;;;5061379;28;20230;-68
2023/12/08 08:23:27;;;;;;;54.83;13.70;;;;;;;;;;5063338;28;20229;-67
2023/12/08 08:25:55;;;;;;;64.83;14.97;;;;;;;;;;5061678;28;20301;-68
2023/12/08 08:28:23;;;;;;;72.77;14.93;;;;;;;;;;5058151;28;20216;-70
2023/12/08 08:30:50;;;;;;;102.07;15.80;;;;;;;;;;5061019;28;20235;-68
2023/12/08 08:33:17;;;;;;;57.63;13.30;;;;;;;;;;5060776;28;20195;-69
2023/12/08 08:35:45;;;;;;;59.33;14.17;;;;;;;;;;5066948;28;20203;-68
2023/12/08 08:38:12;;;;;;;55.43;13.80;;;;;;;;;;5058593;28;20207;-67
2023/12/08 08:40:39;;;;;;;78.87;15.80;;;;;;;;;;5066165;28;20232;-68
2023/12/08 08:43:07;;;;;;;71.03;14.53;;;;;;;;;;5058417;28;20233;-69
2023/12/08 08:45:34;;;;;;;75.27;14.77;;;;;;;;;;5063266;28;20203;-68
2023/12/08 08:48:03;;;;;;;25.03;10.37;;;;;;;;;;5066215;28;20226;-68
2023/12/08 08:50:30;;;;;;;35.97;11.37;;;;;;;;;;5067004;28;20214;-68
2023/12/08 08:52:57;;;;;;;46.80;12.13;;;;;;;;;;5061242;28;20213;-67
2023/12/08 08:55:24;;;;;;;71.07;13.70;;;;;;;;;;5067481;28;20203;-62
2023/12/08 08:57:51;;;;;;;82.63;14.17;;;;;;;;;;5066471;28;20278;-63
2023/12/08 09:00:21;;;;;;;67.20;13.20;;;;;;;;;;5063969;28;20288;-62
2023/12/08 09:02:51;;;;;;;29.17;10.47;;;;;;;;;;5064117;28;20227;-63
2023/12/08 09:05:18;;;;;;;60.27;12.27;;;;;;;;;;5065030;28;20216;-62
2023/12/08 09:07:45;;;;;;;52.73;13.47;;;;;;;;;;5064679;28;20200;-61
2023/12/08 09:10:13;;;;;;;45.87;12.90;;;;;;;;;;5066197;28;20230;-62
2023/12/08 09:12:40;;;;;;;54.60;12.70;;;;;;;;;;5056644;28;20196;-62
2023/12/08 09:15:08;;;;;;;77.67;14.53;;;;;;;;;;5066819;28;20196;-62
2023/12/08 09:17:36;;;;;;;30.50;11.30;;;;;;;;;;5067392;28;20213;-62
2023/12/08 09:20:08;;;;;;;43.83;12.30;;;;;;;;;;5064674;28;20208;-62
2023/12/08 09:22:35;;;;;;;36.70;11.13;;;;;;;;;;5068507;28;20223;-62
2023/12/08 09:25:02;;;;;;;32.60;11.77;;;;;;;;;;5069503;28;20242;-63
2023/12/08 09:27:29;;;;;;;89.73;13.83;;;;;;;;;;5068539;28;20209;-61
2023/12/08 09:29:56;;;;;;;123.23;14.53;;;;;;;;;;5065366;28;20443;-63
2023/12/08 09:32:23;;;;;;;30.87;9.63;;;;;;;;;;5068288;28;20203;-61
2023/12/08 09:34:52;;;;;;;18.13;9.33;;;;;;;;;;5068140;28;20209;-62
2023/12/08 09:37:19;;;;;;;32.70;10.40;;;;;;;;;;5066073;28;20203;-63
2023/12/08 09:39:46;;;;;;;21.57;8.60;;;;;;;;;;5069880;28;20205;-63
2023/12/08 09:42:16;;;;;;;29.63;9.60;;;;;;;;;;5067735;28;20219;-63
2023/12/08 09:44:51;;;;;;;27.50;10.00;;;;;;;;;;5067483;28;20202;-62
2023/12/08 09:47:20;;;;;;;21.93;9.00;;;;;;;;;;5067624;28;20218;-61
2023/12/08 09:49:49;;;;;;;18.13;9.33;;;;;;;;;;5062014;28;20202;-63
2023/12/08 09:52:17;;;;;;;18.77;8.43;;;;;;;;;;5062871;28;20289;-63
2023/12/08 09:54:45;;;;;;;24.03;8.60;;;;;;;;;;5059021;28;20219;-62
2023/12/08 09:57:13;;;;;;;18.10;9.10;;;;;;;;;;5064120;28;20203;-62
2023/12/08 09:59:40;;;;;;;14.30;8.20;;;;;;;;;;5060314;28;20200;-62
2023/12/08 10:02:08;;;;;;;18.17;7.87;;;;;;;;;;5068388;28;20206;-61
2023/12/08 10:04:36;;;;;;;36.47;8.87;;;;;;;;;;5067603;28;20226;-61
2023/12/08 10:07:04;;;;;;;36.07;8.57;;;;;;;;;;5068600;28;20222;-68
2023/12/08 10:09:32;;;;;;;26.77;8.63;;;;;;;;;;5065777;28;20273;-67
2023/12/08 10:12:00;;;;;;;15.93;7.63;;;;;;;;;;5065734;28;20218;-67
2023/12/08 10:14:27;;;;;;;13.83;7.70;;;;;;;;;;5064960;28;20241;-68
2023/12/08 10:16:54;;;;;;;23.37;7.73;;;;;;;;;;5064123;28;20203;-68
2023/12/08 10:19:21;;;;;;;9.07;6.77;;;;;;;;;;5068563;28;20200;-68
2023/12/08 10:21:59;;;;;;;15.90;7.47;;;;;;;;;;5065143;28;20282;-68
2023/12/08 10:24:28;;;;;;;16.37;7.87;;;;;;;;;;5064380;28;20200;-67
2023/12/08 10:26:56;;;;;;;14.93;7.93;;;;;;;;;;5063327;28;20199;-67
2023/12/08 10:29:23;;;;;;;10.53;7.33;;;;;;;;;;5061169;28;20205;-68
2023/12/08 10:31:52;;;;;;;15.80;8.17;;;;;;;;;;5062642;28;20203;-68
2023/12/08 10:34:19;;;;;;;9.60;7.60;;;;;;;;;;5065019;28;20188;-67
2023/12/08 10:36:46;;;;;;;18.17;7.43;;;;;;;;;;5061926;28;20258;-69
2023/12/08 10:39:14;;;;;;;10.37;7.03;;;;;;;;;;5065373;28;20206;-70
2023/12/08 10:41:41;;;;;;;11.37;7.33;;;;;;;;;;5066388;28;20217;-70
2023/12/08 10:44:09;;;;;;;16.10;7.80;;;;;;;;;;5067100;28;20225;-70
2023/12/08 10:46:36;;;;;;;17.13;8.10;;;;;;;;;;5067019;28;20199;-70
2023/12/08 10:49:04;;;;;;;14.20;8.20;;;;;;;;;;5064192;28;20203;-69
2023/12/08 10:51:32;;;;;;;11.90;7.23;;;;;;;;;;5066671;28;20210;-69
2023/12/08 10:54:01;;;;;;;27.70;9.70;;;;;;;;;;5057898;28;20211;-69
2023/12/08 10:56:28;;;;;;;23.40;9.57;;;;;;;;;;5062216;28;20207;-67
2023/12/08 10:58:58;;;;;;;44.67;10.47;;;;;;;;;;5059242;28;20503;-67
2023/12/08 11:01:28;;;;;;;27.03;9.63;;;;;;;;;;5058923;28;20205;-67
2023/12/08 11:03:57;;;;;;;25.90;9.63;;;;;;;;;;5066280;28;20222;-67
2023/12/08 11:06:28;;;;;;;23.20;9.23;;;;;;;;;;5068263;28;20199;-67
2023/12/08 11:08:55;;;;;;;12.87;8.20;;;;;;;;;;5064829;28;20218;-67
2023/12/08 11:11:23;;;;;;;10.23;8.20;;;;;;;;;;5058946;28;20263;-67
2023/12/08 11:13:52;;;;;;;10.23;8.23;;;;;;;;;;5060827;28;20230;-67
2023/12/08 11:16:25;;;;;;;12.50;8.80;;;;;;;;;;5067017;28;20211;-66
2023/12/08 11:18:53;;;;;;;29.27;9.60;;;;;;;;;;5059287;28;20272;-67
2023/12/08 11:21:21;;;;;;;18.47;9.27;;;;;;;;;;5066266;28;20207;-67
2023/12/08 11:23:48;;;;;;;12.13;8.53;;;;;;;;;;5062848;28;20233;-66
2023/12/08 11:26:18;;;;;;;21.60;9.83;;;;;;;;;;5058862;28;20340;-67
2023/12/08 11:28:50;;;;;;;11.63;8.87;;;;;;;;;;5062414;28;20200;-67
2023/12/08 11:31:21;;;;;;;18.50;9.43;;;;;;;;;;5059549;28;20223;-68
2023/12/08 11:33:52;;;;;;;14.87;9.77;;;;;;;;;;5059365;28;20195;-67
2023/12/08 11:36:21;;;;;;;13.57;9.10;;;;;;;;;;5059884;28;20209;-67
2023/12/08 11:38:48;;;;;;;12.73;8.57;;;;;;;;;;5059777;28;20199;-67
2023/12/08 11:41:15;;;;;;;21.77;9.57;;;;;;;;;;5060109;28;20221;-67
2023/12/08 11:43:43;;;;;;;20.30;8.70;;;;;;;;;;5063360;28;20230;-68
2023/12/08 11:46:10;;;;;;;15.20;8.30;;;;;;;;;;5061212;28;20432;-67
2023/12/08 11:48:37;;;;;;;13.60;8.00;;;;;;;;;;5062251;28;20209;-67
2023/12/08 11:51:05;;;;;;;13.70;8.20;;;;;;;;;;5064045;28;20682;-67
2023/12/08 11:53:48;;;;;;;12.30;9.60;;;;;;;;;;5067505;28;20199;-67
2023/12/08 11:56:28;;;;;;;17.87;9.50;;;;;;;;;;5064588;28;20207;-67
2023/12/08 11:59:00;;;;;;;11.33;8.50;;;;;;;;;;5061073;28;20210;-67
2023/12/08 12:01:27;;;;;;;11.77;8.23;;;;;;;;;;5064450;28;20321;-67
2023/12/08 12:03:56;;;;;;;17.93;8.37;;;;;;;;;;5060049;28;20227;-67
2023/12/08 12:06:24;;;;;;;18.27;9.83;;;;;;;;;;5060445;28;20203;-67
2023/12/08 12:08:52;;;;;;;12.03;8.10;;;;;;;;;;5059911;28;20209;-66
2023/12/08 12:11:21;;;;;;;11.10;8.10;;;;;;;;;;5063281;28;20243;-67
2023/12/08 12:13:48;;;;;;;13.47;8.30;;;;;;;;;;5059586;28;20237;-67
2023/12/08 12:16:15;;;;;;;14.20;9.00;;;;;;;;;;5064165;28;20203;-67
2023/12/08 12:18:43;;;;;;;12.40;9.10;;;;;;;;;;5070909;28;20199;-66
2023/12/08 12:21:10;;;;;;;10.57;8.20;;;;;;;;;;5069813;28;20209;-67
2023/12/08 12:23:38;;;;;;;19.37;9.13;;;;;;;;;;5065471;28;20226;-66
2023/12/08 12:26:13;;;;;;;22.13;9.23;;;;;;;;;;5067065;28;20203;-67
2023/12/08 12:28:40;;;;;;;12.20;7.97;;;;;;;;;;5069691;28;20206;-61
2023/12/08 12:31:07;;;;;;;15.43;9.07;;;;;;;;;;5065256;28;20221;-61
2023/12/08 12:33:36;;;;;;;12.33;8.50;;;;;;;;;;5069897;28;20195;-61
2023/12/08 12:36:05;;;;;;;16.60;8.70;;;;;;;;;;5067358;28;20203;-61
2023/12/08 12:38:32;;;;;;;14.13;8.83;;;;;;;;;;5063215;28;20210;-60
2023/12/08 12:41:14;;;;;;;12.17;8.50;;;;;;;;;;5056543;28;20207;-62
2023/12/08 12:43:43;;;;;;;13.13;8.13;;;;;;;;;;5058529;28;20224;-62
2023/12/08 12:46:10;;;;;;;13.30;8.43;;;;;;;;;;5055580;28;20202;-61
2023/12/08 12:48:37;;;;;;;15.33;9.50;;;;;;;;;;5056135;28;20203;-61
2023/12/08 12:51:04;;;;;;;17.47;9.57;;;;;;;;;;5057071;28;20203;-61
2023/12/08 12:53:31;;;;;;;13.80;8.63;;;;;;;;;;5063100;28;20199;-61
2023/12/08 12:56:06;;;;;;;17.47;9.60;;;;;;;;;;5058288;28;20218;-61
2023/12/08 12:58:33;;;;;;;16.77;10.03;;;;;;;;;;5058641;28;20194;-62
2023/12/08 13:01:10;;;;;;;16.87;9.20;;;;;;;;;;5056505;28;20292;-62
2023/12/08 13:03:37;;;;;;;14.17;9.10;;;;;;;;;;5056374;28;20222;-61
2023/12/08 13:06:06;;;;;;;14.13;9.93;;;;;;;;;;5051909;28;20211;-61
2023/12/08 13:08:43;;;;;;;15.87;9.80;;;;;;;;;;5056422;28;20214;-61
2023/12/08 13:11:10;;;;;;;15.53;11.03;;;;;;;;;;5058783;28;20206;-63
2023/12/08 13:13:38;;;;;;;17.37;11.13;;;;;;;;;;5058555;28;20241;-61
2023/12/08 13:16:07;;;;;;;19.47;11.00;;;;;;;;;;5057615;28;20198;-61
2023/12/08 13:18:35;;;;;;;18.83;10.60;;;;;;;;;;5060428;28;20205;-62
2023/12/08 13:21:03;;;;;;;16.83;10.77;;;;;;;;;;5057547;28;20326;-62
2023/12/08 13:23:30;;;;;;;14.00;9.17;;;;;;;;;;5056988;28;20224;-61
2023/12/08 13:25:57;;;;;;;16.70;10.53;;;;;;;;;;5057034;28;20269;-62
2023/12/08 13:28:24;;;;;;;15.47;10.33;;;;;;;;;;5057414;28;20206;-62
2023/12/08 13:30:51;;;;;;;14.80;9.70;;;;;;;;;;5057933;28;20201;-61
2023/12/08 13:33:21;;;;;;;17.00;10.60;;;;;;;;;;5056509;28;20234;-63
2023/12/08 13:35:49;;;;;;;14.73;9.60;;;;;;;;;;5054993;28;20301;-61
2023/12/08 13:38:16;;;;;;;16.13;10.00;;;;;;;;;;5065240;28;20194;-66
2023/12/08 13:40:43;;;;;;;13.93;9.53;;;;;;;;;;5067834;28;20199;-66
2023/12/08 13:43:10;;;;;;;14.23;9.50;;;;;;;;;;5063734;28;20215;-66
2023/12/08 13:45:37;;;;;;;15.77;9.40;;;;;;;;;;5062214;28;20218;-68
2023/12/08 13:48:04;;;;;;;13.73;9.00;;;;;;;;;;5068222;28;20238;-66
2023/12/08 13:50:33;;;;;;;15.03;9.50;;;;;;;;;;5056927;28;20196;-66
2023/12/08 13:52:59;;;;;;;15.53;9.80;;;;;;;;;;5068933;28;20228;-67
2023/12/08 13:55:26;;;;;;;13.33;9.33;;;;;;;;;;5066994;28;20199;-66
2023/12/08 13:57:53;;;;;;;15.50;9.83;;;;;;;;;;5067039;28;20203;-66
2023/12/08 14:00:20;;;;;;;16.13;10.23;;;;;;;;;;5055001;28;20219;-66
2023/12/08 14:02:47;;;;;;;15.90;9.40;;;;;;;;;;5060602;28;20201;-67
2023/12/08 14:05:14;;;;;;;15.93;10.00;;;;;;;;;;5065916;28;20218;-67
2023/12/08 14:07:43;;;;;;;14.87;9.40;;;;;;;;;;5062375;28;20200;-66
2023/12/08 14:10:11;;;;;;;16.07;10.40;;;;;;;;;;5064802;28;20210;-66
2023/12/08 14:12:38;;;;;;;15.13;10.07;;;;;;;;;;5066783;28;20212;-66
2023/12/08 14:15:05;;;;;;;15.83;10.87;;;;;;;;;;5063927;28;20226;-66
2023/12/08 14:17:32;;;;;;;14.63;9.87;;;;;;;;;;5067393;28;20262;-67
2023/12/08 14:20:00;;;;;;;17.20;9.63;;;;;;;;;;5065915;28;20225;-66
2023/12/08 14:22:27;;;;;;;17.53;9.70;;;;;;;;;;5068068;28;20194;-66
2023/12/08 14:24:55;;;;;;;15.23;9.70;;;;;;;;;;5068960;28;20226;-66
2023/12/08 14:27:22;;;;;;;13.57;9.27;;;;;;;;;;5065934;28;20203;-67
2023/12/08 14:29:49;;;;;;;14.70;9.50;;;;;;;;;;5062905;28;20209;-67
2023/12/08 14:32:18;;;;;;;16.77;10.30;;;;;;;;;;5059328;28;20202;-66
2023/12/08 14:34:45;;;;;;;15.90;9.93;;;;;;;;;;5058753;28;20202;-67